Airfield :
LOGIN :

Register | Disclaimer

   EN    FR    IT 

 










Legend :    VFR   Marginal VFR   IFR   Intensive IFR   Very Intensive IFR
Visi :
Ceiling :
>= 8 km
>= 3000ft
5 to 8 km
1000 to 3000 ft
1500m to 5 km
500 to 1000 ft
800 to 1500m
200 to 500 ft
< 800m
< 200 ft
Symbols :   Thunderstorms  Fog  Heavy snow  Heavy precipitations  Wind > 20 kt
SIGMETs :     Misc.  Thunderstorms  Icing  Turbulence  Mountain Waves  Volcanic Ashes







- Airport Elevation : 370 ft


EBBE - Beauvechain AB

EXPIRED METARs :
  • 250155Z AUTO 24012KT 9999 SCT017/// BKN020/// BKN039/// 13/09 Q1010 WHT
  • 250142Z AUTO 24012KT 9999 FEW018/// SCT021/// BKN036/// 14/09 Q1010 WHT

TAF TAF EBBE
Valid from the 24 at 19:00 until the 25 at 07:00 UTC


241541Z 2419/2507 23010KT 9999 BKN030
TEMPO 2419/2421 7000 -RA BKN028
BECMG 2500/2504 FEW012 BKN020
BECMG 2504/2506 SCT008 OVC012
TEMPO 2504/2507 4000 RA SCT005 OVC007
No reported NOTAMs for that airfield.



MET'MAP, your aeronautical weather chart ! - Copyright ORBIFLY December 2007 - Disclaimer

ORBIFLY MET'MAP TEAM :

Programming & Development : Alexandra Zaïnal
Concept & Development : Baudouin d'Aumeries
Co-Development & Prog : Marc-Olivier Méhu
Technical & hardware support : Manuel Goepfert

Contact : metmap@orbifly.com




SOURCES & CREDITS :

   NOAA